sensor_id;sensor_type;location;lat;lon;timestamp;P1;durP1;ratioP1;P2;durP2;ratioP2
68870;SDS011;55906;52.278;6.808;2022-08-02T00:01:51;4.82;;;3.90;;
68870;SDS011;55906;52.278;6.808;2022-08-02T00:04:17;4.88;;;2.97;;
68870;SDS011;55906;52.278;6.808;2022-08-02T00:06:44;5.35;;;3.88;;
68870;SDS011;55906;52.278;6.808;2022-08-02T00:09:12;5.40;;;3.57;;
68870;SDS011;55906;52.278;6.808;2022-08-02T00:11:40;4.28;;;3.47;;
68870;SDS011;55906;52.278;6.808;2022-08-02T00:14:07;4.90;;;3.03;;
68870;SDS011;55906;52.278;6.808;2022-08-02T00:16:33;5.32;;;3.65;;
68870;SDS011;55906;52.278;6.808;2022-08-02T00:19:00;4.90;;;3.38;;
68870;SDS011;55906;52.278;6.808;2022-08-02T00:21:26;4.53;;;3.30;;
68870;SDS011;55906;52.278;6.808;2022-08-02T00:23:53;5.70;;;3.67;;
68870;SDS011;55906;52.278;6.808;2022-08-02T00:26:21;6.15;;;4.00;;
68870;SDS011;55906;52.278;6.808;2022-08-02T00:28:47;5.18;;;3.60;;
68870;SDS011;55906;52.278;6.808;2022-08-02T00:31:14;5.88;;;3.58;;
68870;SDS011;55906;52.278;6.808;2022-08-02T00:33:41;6.43;;;3.40;;
68870;SDS011;55906;52.278;6.808;2022-08-02T00:36:08;4.78;;;3.67;;
68870;SDS011;55906;52.278;6.808;2022-08-02T00:38:34;5.50;;;4.20;;
68870;SDS011;55906;52.278;6.808;2022-08-02T00:41:01;4.93;;;3.63;;
68870;SDS011;55906;52.278;6.808;2022-08-02T00:43:29;5.63;;;3.90;;
68870;SDS011;55906;52.278;6.808;2022-08-02T00:45:56;4.40;;;3.40;;
68870;SDS011;55906;52.278;6.808;2022-08-02T00:48:23;4.32;;;3.33;;
68870;SDS011;55906;52.278;6.808;2022-08-02T00:50:49;6.53;;;4.05;;
68870;SDS011;55906;52.278;6.808;2022-08-02T00:53:16;5.03;;;3.30;;
68870;SDS011;55906;52.278;6.808;2022-08-02T00:55:43;4.50;;;3.75;;
68870;SDS011;55906;52.278;6.808;2022-08-02T00:58:11;5.70;;;3.27;;
68870;SDS011;55906;52.278;6.808;2022-08-02T01:00:39;4.43;;;3.58;;
68870;SDS011;55906;52.278;6.808;2022-08-02T01:03:06;5.70;;;3.60;;
68870;SDS011;55906;52.278;6.808;2022-08-02T01:05:32;4.78;;;3.30;;
68870;SDS011;55906;52.278;6.808;2022-08-02T01:07:59;4.63;;;3.42;;
68870;SDS011;55906;52.278;6.808;2022-08-02T01:10:27;5.20;;;3.10;;
68870;SDS011;55906;52.278;6.808;2022-08-02T01:12:53;4.97;;;3.63;;
68870;SDS011;55906;52.278;6.808;2022-08-02T01:15:20;4.43;;;3.50;;
68870;SDS011;55906;52.278;6.808;2022-08-02T01:17:51;5.13;;;3.30;;
68870;SDS011;55906;52.278;6.808;2022-08-02T01:20:44;7.95;;;4.60;;
68870;SDS011;55906;52.278;6.808;2022-08-02T01:23:31;5.50;;;3.27;;
68870;SDS011;55906;52.278;6.808;2022-08-02T01:26:17;4.93;;;3.00;;
68870;SDS011;55906;52.278;6.808;2022-08-02T01:29:02;5.28;;;3.47;;
68870;SDS011;55906;52.278;6.808;2022-08-02T01:31:33;4.40;;;3.20;;
68870;SDS011;55906;52.278;6.808;2022-08-02T01:34:05;6.28;;;3.55;;
68870;SDS011;55906;52.278;6.808;2022-08-02T01:36:37;4.63;;;3.33;;
68870;SDS011;55906;52.278;6.808;2022-08-02T01:39:07;5.88;;;3.40;;
68870;SDS011;55906;52.278;6.808;2022-08-02T01:41:36;7.28;;;3.85;;
68870;SDS011;55906;52.278;6.808;2022-08-02T01:44:05;4.50;;;3.30;;
68870;SDS011;55906;52.278;6.808;2022-08-02T01:46:32;4.22;;;3.10;;
68870;SDS011;55906;52.278;6.808;2022-08-02T01:49:00;5.93;;;3.40;;
68870;SDS011;55906;52.278;6.808;2022-08-02T01:51:30;4.35;;;3.20;;
68870;SDS011;55906;52.278;6.808;2022-08-02T01:54:17;5.68;;;3.42;;
68870;SDS011;55906;52.278;6.808;2022-08-02T01:59:54;4.95;;;3.78;;
68870;SDS011;55906;52.278;6.808;2022-08-02T02:02:24;4.80;;;3.10;;
68870;SDS011;55906;52.278;6.808;2022-08-02T02:04:52;4.38;;;3.40;;
68870;SDS011;55906;52.278;6.808;2022-08-02T02:07:19;6.32;;;3.60;;
68870;SDS011;55906;52.278;6.808;2022-08-02T02:09:47;6.05;;;3.72;;
68870;SDS011;55906;52.278;6.808;2022-08-02T02:12:16;8.80;;;3.85;;
68870;SDS011;55906;52.278;6.808;2022-08-02T02:14:43;4.87;;;3.10;;
68870;SDS011;55906;52.278;6.808;2022-08-02T02:17:12;4.95;;;3.80;;
68870;SDS011;55906;52.278;6.808;2022-08-02T02:19:40;8.15;;;3.83;;
68870;SDS011;55906;52.278;6.808;2022-08-02T02:22:08;5.43;;;3.50;;
68870;SDS011;55906;52.278;6.808;2022-08-02T02:24:35;6.47;;;4.50;;
68870;SDS011;55906;52.278;6.808;2022-08-02T02:27:02;5.67;;;3.57;;
68870;SDS011;55906;52.278;6.808;2022-08-02T02:29:32;4.63;;;3.33;;
68870;SDS011;55906;52.278;6.808;2022-08-02T02:32:01;4.32;;;3.60;;
68870;SDS011;55906;52.278;6.808;2022-08-02T02:34:33;5.95;;;4.82;;
68870;SDS011;55906;52.278;6.808;2022-08-02T02:37:04;5.55;;;4.30;;
68870;SDS011;55906;52.278;6.808;2022-08-02T02:39:33;4.67;;;2.93;;
68870;SDS011;55906;52.278;6.808;2022-08-02T02:42:02;4.95;;;3.60;;
68870;SDS011;55906;52.278;6.808;2022-08-02T02:44:34;6.45;;;3.55;;
68870;SDS011;55906;52.278;6.808;2022-08-02T02:47:01;4.57;;;3.50;;
68870;SDS011;55906;52.278;6.808;2022-08-02T02:49:31;5.55;;;3.88;;
68870;SDS011;55906;52.278;6.808;2022-08-02T02:52:00;4.97;;;3.30;;
68870;SDS011;55906;52.278;6.808;2022-08-02T02:54:28;4.20;;;3.30;;
68870;SDS011;55906;52.278;6.808;2022-08-02T02:56:55;5.30;;;4.10;;
68870;SDS011;55906;52.278;6.808;2022-08-02T02:59:23;4.68;;;3.28;;
68870;SDS011;55906;52.278;6.808;2022-08-02T03:01:50;5.10;;;3.90;;
68870;SDS011;55906;52.278;6.808;2022-08-02T03:04:18;5.50;;;3.57;;
68870;SDS011;55906;52.278;6.808;2022-08-02T03:06:47;5.05;;;3.50;;
68870;SDS011;55906;52.278;6.808;2022-08-02T03:09:14;4.53;;;3.88;;
68870;SDS011;55906;52.278;6.808;2022-08-02T03:11:41;4.90;;;3.65;;
68870;SDS011;55906;52.278;6.808;2022-08-02T03:14:10;4.55;;;3.88;;
68870;SDS011;55906;52.278;6.808;2022-08-02T03:16:40;4.63;;;3.37;;
68870;SDS011;55906;52.278;6.808;2022-08-02T03:19:08;4.78;;;3.50;;
68870;SDS011;55906;52.278;6.808;2022-08-02T03:21:34;6.85;;;4.38;;
68870;SDS011;55906;52.278;6.808;2022-08-02T03:24:05;4.75;;;3.90;;
68870;SDS011;55906;52.278;6.808;2022-08-02T03:26:32;5.35;;;3.78;;
68870;SDS011;55906;52.278;6.808;2022-08-02T03:28:59;5.83;;;3.67;;
68870;SDS011;55906;52.278;6.808;2022-08-02T03:31:26;5.20;;;3.90;;
68870;SDS011;55906;52.278;6.808;2022-08-02T03:33:53;5.20;;;4.70;;
68870;SDS011;55906;52.278;6.808;2022-08-02T03:36:21;5.90;;;3.83;;
68870;SDS011;55906;52.278;6.808;2022-08-02T03:38:50;5.00;;;3.80;;
68870;SDS011;55906;52.278;6.808;2022-08-02T03:41:19;5.00;;;3.60;;
68870;SDS011;55906;52.278;6.808;2022-08-02T03:43:48;5.10;;;3.60;;
68870;SDS011;55906;52.278;6.808;2022-08-02T03:46:16;5.30;;;3.92;;
68870;SDS011;55906;52.278;6.808;2022-08-02T03:48:45;4.90;;;3.42;;
68870;SDS011;55906;52.278;6.808;2022-08-02T03:51:12;4.65;;;4.15;;
68870;SDS011;55906;52.278;6.808;2022-08-02T03:53:39;5.17;;;3.47;;
68870;SDS011;55906;52.278;6.808;2022-08-02T03:56:07;6.30;;;4.65;;
68870;SDS011;55906;52.278;6.808;2022-08-02T03:58:36;5.35;;;3.85;;
68870;SDS011;55906;52.278;6.808;2022-08-02T04:01:03;4.75;;;3.78;;
68870;SDS011;55906;52.278;6.808;2022-08-02T04:03:29;7.25;;;3.90;;
68870;SDS011;55906;52.278;6.808;2022-08-02T04:05:56;5.60;;;3.83;;
68870;SDS011;55906;52.278;6.808;2022-08-02T04:08:22;5.15;;;4.15;;
68870;SDS011;55906;52.278;6.808;2022-08-02T04:10:49;5.38;;;4.20;;
68870;SDS011;55906;52.278;6.808;2022-08-02T04:13:34;5.03;;;3.83;;
68870;SDS011;55906;52.278;6.808;2022-08-02T04:16:05;5.40;;;4.05;;
68870;SDS011;55906;52.278;6.808;2022-08-02T04:18:38;5.10;;;3.67;;
68870;SDS011;55906;52.278;6.808;2022-08-02T04:21:07;5.47;;;4.25;;
68870;SDS011;55906;52.278;6.808;2022-08-02T04:23:38;5.45;;;4.22;;
68870;SDS011;55906;52.278;6.808;2022-08-02T04:26:07;6.15;;;3.55;;
68870;SDS011;55906;52.278;6.808;2022-08-02T04:28:37;6.53;;;4.70;;
68870;SDS011;55906;52.278;6.808;2022-08-02T04:31:05;5.40;;;4.17;;
68870;SDS011;55906;52.278;6.808;2022-08-02T04:33:33;6.95;;;5.07;;
68870;SDS011;55906;52.278;6.808;2022-08-02T04:36:00;6.53;;;4.50;;
68870;SDS011;55906;52.278;6.808;2022-08-02T04:38:29;5.55;;;4.63;;
68870;SDS011;55906;52.278;6.808;2022-08-02T04:40:56;6.32;;;5.20;;
68870;SDS011;55906;52.278;6.808;2022-08-02T04:43:23;6.30;;;4.40;;
68870;SDS011;55906;52.278;6.808;2022-08-02T04:45:52;6.10;;;4.82;;
68870;SDS011;55906;52.278;6.808;2022-08-02T04:48:20;9.57;;;5.32;;
68870;SDS011;55906;52.278;6.808;2022-08-02T04:50:47;8.68;;;4.63;;
68870;SDS011;55906;52.278;6.808;2022-08-02T04:53:14;10.40;;;5.32;;
68870;SDS011;55906;52.278;6.808;2022-08-02T04:55:41;6.67;;;4.20;;
68870;SDS011;55906;52.278;6.808;2022-08-02T04:58:07;5.90;;;3.78;;
68870;SDS011;55906;52.278;6.808;2022-08-02T05:00:34;7.07;;;4.97;;
68870;SDS011;55906;52.278;6.808;2022-08-02T05:03:02;9.13;;;5.25;;
68870;SDS011;55906;52.278;6.808;2022-08-02T05:05:29;6.97;;;4.40;;
68870;SDS011;55906;52.278;6.808;2022-08-02T05:07:55;5.73;;;4.53;;
68870;SDS011;55906;52.278;6.808;2022-08-02T05:10:23;8.05;;;4.97;;
68870;SDS011;55906;52.278;6.808;2022-08-02T05:12:50;6.28;;;4.53;;
68870;SDS011;55906;52.278;6.808;2022-08-02T05:15:17;7.28;;;5.18;;
68870;SDS011;55906;52.278;6.808;2022-08-02T05:17:44;5.45;;;4.05;;
68870;SDS011;55906;52.278;6.808;2022-08-02T05:20:13;5.20;;;4.07;;
68870;SDS011;55906;52.278;6.808;2022-08-02T05:22:42;6.07;;;4.28;;
68870;SDS011;55906;52.278;6.808;2022-08-02T05:25:10;5.65;;;4.50;;
68870;SDS011;55906;52.278;6.808;2022-08-02T05:27:37;10.52;;;5.28;;
68870;SDS011;55906;52.278;6.808;2022-08-02T05:30:04;5.93;;;4.28;;
68870;SDS011;55906;52.278;6.808;2022-08-02T05:32:32;16.57;;;4.93;;
68870;SDS011;55906;52.278;6.808;2022-08-02T05:34:59;8.85;;;5.35;;
68870;SDS011;55906;52.278;6.808;2022-08-02T05:37:28;7.07;;;4.20;;
68870;SDS011;55906;52.278;6.808;2022-08-02T05:39:55;8.15;;;4.93;;
68870;SDS011;55906;52.278;6.808;2022-08-02T05:42:22;6.05;;;4.50;;
68870;SDS011;55906;52.278;6.808;2022-08-02T05:44:48;7.60;;;4.80;;
68870;SDS011;55906;52.278;6.808;2022-08-02T05:47:15;5.30;;;4.15;;
68870;SDS011;55906;52.278;6.808;2022-08-02T05:49:42;5.85;;;4.10;;
68870;SDS011;55906;52.278;6.808;2022-08-02T05:52:10;8.55;;;4.88;;
68870;SDS011;55906;52.278;6.808;2022-08-02T05:54:44;8.55;;;4.68;;
68870;SDS011;55906;52.278;6.808;2022-08-02T05:57:15;6.93;;;5.13;;
68870;SDS011;55906;52.278;6.808;2022-08-02T05:59:51;6.88;;;5.22;;
68870;SDS011;55906;52.278;6.808;2022-08-02T06:02:28;7.90;;;4.68;;
68870;SDS011;55906;52.278;6.808;2022-08-02T06:04:58;9.20;;;4.93;;
68870;SDS011;55906;52.278;6.808;2022-08-02T06:07:29;9.13;;;5.18;;
68870;SDS011;55906;52.278;6.808;2022-08-02T06:10:03;8.13;;;5.20;;
68870;SDS011;55906;52.278;6.808;2022-08-02T06:12:31;6.38;;;4.10;;
68870;SDS011;55906;52.278;6.808;2022-08-02T06:14:59;6.95;;;4.75;;
68870;SDS011;55906;52.278;6.808;2022-08-02T06:17:26;8.73;;;5.15;;
68870;SDS011;55906;52.278;6.808;2022-08-02T06:19:54;8.20;;;5.10;;
68870;SDS011;55906;52.278;6.808;2022-08-02T06:22:22;8.43;;;4.80;;
68870;SDS011;55906;52.278;6.808;2022-08-02T06:24:51;11.10;;;5.13;;
68870;SDS011;55906;52.278;6.808;2022-08-02T06:27:21;8.57;;;4.70;;
68870;SDS011;55906;52.278;6.808;2022-08-02T06:29:52;8.20;;;4.45;;
68870;SDS011;55906;52.278;6.808;2022-08-02T06:32:20;7.80;;;5.00;;
68870;SDS011;55906;52.278;6.808;2022-08-02T06:34:47;7.83;;;4.40;;
68870;SDS011;55906;52.278;6.808;2022-08-02T06:37:26;5.60;;;4.05;;
68870;SDS011;55906;52.278;6.808;2022-08-02T06:39:58;7.38;;;4.60;;
68870;SDS011;55906;52.278;6.808;2022-08-02T06:42:33;6.45;;;4.22;;
68870;SDS011;55906;52.278;6.808;2022-08-02T06:45:11;7.65;;;4.50;;
68870;SDS011;55906;52.278;6.808;2022-08-02T06:47:38;9.27;;;3.70;;
68870;SDS011;55906;52.278;6.808;2022-08-02T06:50:04;8.63;;;4.05;;
68870;SDS011;55906;52.278;6.808;2022-08-02T06:52:31;7.03;;;4.90;;
68870;SDS011;55906;52.278;6.808;2022-08-02T06:55:00;8.88;;;4.35;;
68870;SDS011;55906;52.278;6.808;2022-08-02T06:57:28;8.13;;;4.13;;
68870;SDS011;55906;52.278;6.808;2022-08-02T06:59:58;9.03;;;4.90;;
68870;SDS011;55906;52.278;6.808;2022-08-02T07:02:27;8.20;;;4.18;;
68870;SDS011;55906;52.278;6.808;2022-08-02T07:04:54;6.55;;;4.40;;
68870;SDS011;55906;52.278;6.808;2022-08-02T07:07:21;5.22;;;3.85;;
68870;SDS011;55906;52.278;6.808;2022-08-02T07:09:47;6.57;;;4.40;;
68870;SDS011;55906;52.278;6.808;2022-08-02T07:12:15;8.77;;;4.60;;
68870;SDS011;55906;52.278;6.808;2022-08-02T07:14:41;7.70;;;4.30;;
68870;SDS011;55906;52.278;6.808;2022-08-02T07:17:09;7.25;;;4.15;;
68870;SDS011;55906;52.278;6.808;2022-08-02T07:19:36;7.43;;;4.38;;
68870;SDS011;55906;52.278;6.808;2022-08-02T07:22:03;9.75;;;5.55;;
68870;SDS011;55906;52.278;6.808;2022-08-02T07:24:30;14.07;;;5.37;;
68870;SDS011;55906;52.278;6.808;2022-08-02T07:26:56;12.48;;;5.32;;
68870;SDS011;55906;52.278;6.808;2022-08-02T07:29:24;14.00;;;5.75;;
68870;SDS011;55906;52.278;6.808;2022-08-02T07:31:50;13.07;;;5.55;;
68870;SDS011;55906;52.278;6.808;2022-08-02T07:34:18;11.75;;;5.47;;
68870;SDS011;55906;52.278;6.808;2022-08-02T07:36:45;9.20;;;5.17;;
68870;SDS011;55906;52.278;6.808;2022-08-02T07:39:11;8.68;;;5.15;;
68870;SDS011;55906;52.278;6.808;2022-08-02T07:41:38;11.50;;;5.05;;
68870;SDS011;55906;52.278;6.808;2022-08-02T07:44:05;10.95;;;4.85;;
68870;SDS011;55906;52.278;6.808;2022-08-02T07:46:31;11.32;;;5.35;;
68870;SDS011;55906;52.278;6.808;2022-08-02T07:48:58;8.30;;;4.73;;
68870;SDS011;55906;52.278;6.808;2022-08-02T07:51:26;10.70;;;4.63;;
68870;SDS011;55906;52.278;6.808;2022-08-02T07:53:53;8.75;;;5.05;;
68870;SDS011;55906;52.278;6.808;2022-08-02T07:56:19;8.82;;;4.63;;
68870;SDS011;55906;52.278;6.808;2022-08-02T07:58:46;8.57;;;4.85;;
68870;SDS011;55906;52.278;6.808;2022-08-02T08:01:13;8.87;;;5.10;;
68870;SDS011;55906;52.278;6.808;2022-08-02T08:03:40;8.57;;;5.38;;
68870;SDS011;55906;52.278;6.808;2022-08-02T08:06:06;9.77;;;4.60;;
68870;SDS011;55906;52.278;6.808;2022-08-02T08:08:34;12.55;;;4.65;;
68870;SDS011;55906;52.278;6.808;2022-08-02T08:11:01;8.15;;;4.28;;
68870;SDS011;55906;52.278;6.808;2022-08-02T08:13:28;10.30;;;4.73;;
68870;SDS011;55906;52.278;6.808;2022-08-02T08:15:54;8.32;;;4.60;;
68870;SDS011;55906;52.278;6.808;2022-08-02T08:18:21;9.68;;;4.28;;
68870;SDS011;55906;52.278;6.808;2022-08-02T08:20:48;9.95;;;3.88;;
68870;SDS011;55906;52.278;6.808;2022-08-02T08:23:15;11.90;;;4.25;;
68870;SDS011;55906;52.278;6.808;2022-08-02T08:25:43;8.23;;;3.50;;
68870;SDS011;55906;52.278;6.808;2022-08-02T08:28:10;6.10;;;3.53;;
68870;SDS011;55906;52.278;6.808;2022-08-02T08:30:38;8.02;;;3.92;;
68870;SDS011;55906;52.278;6.808;2022-08-02T08:33:06;6.88;;;3.53;;
68870;SDS011;55906;52.278;6.808;2022-08-02T08:35:35;8.10;;;3.75;;
68870;SDS011;55906;52.278;6.808;2022-08-02T08:38:01;7.43;;;3.80;;
68870;SDS011;55906;52.278;6.808;2022-08-02T08:40:28;6.85;;;3.80;;
68870;SDS011;55906;52.278;6.808;2022-08-02T08:42:56;6.20;;;4.38;;
68870;SDS011;55906;52.278;6.808;2022-08-02T08:45:23;8.02;;;3.50;;
68870;SDS011;55906;52.278;6.808;2022-08-02T08:47:55;7.20;;;3.90;;
68870;SDS011;55906;52.278;6.808;2022-08-02T08:50:26;6.00;;;3.17;;
68870;SDS011;55906;52.278;6.808;2022-08-02T08:53:00;7.15;;;3.60;;
68870;SDS011;55906;52.278;6.808;2022-08-02T08:55:29;7.07;;;3.22;;
68870;SDS011;55906;52.278;6.808;2022-08-02T08:57:58;8.63;;;3.30;;
68870;SDS011;55906;52.278;6.808;2022-08-02T09:00:26;8.18;;;3.50;;
68870;SDS011;55906;52.278;6.808;2022-08-02T09:02:54;6.60;;;3.40;;
68870;SDS011;55906;52.278;6.808;2022-08-02T09:05:21;8.00;;;3.30;;
68870;SDS011;55906;52.278;6.808;2022-08-02T09:07:49;6.70;;;3.47;;
68870;SDS011;55906;52.278;6.808;2022-08-02T09:10:30;8.88;;;4.00;;
68870;SDS011;55906;52.278;6.808;2022-08-02T09:13:13;7.68;;;3.75;;
68870;SDS011;55906;52.278;6.808;2022-08-02T09:15:42;6.23;;;2.93;;
68870;SDS011;55906;52.278;6.808;2022-08-02T09:18:11;7.22;;;3.55;;
68870;SDS011;55906;52.278;6.808;2022-08-02T09:20:51;7.72;;;3.30;;
68870;SDS011;55906;52.278;6.808;2022-08-02T09:23:21;9.07;;;4.30;;
68870;SDS011;55906;52.278;6.808;2022-08-02T09:25:55;10.27;;;3.75;;
68870;SDS011;55906;52.278;6.808;2022-08-02T09:28:28;7.93;;;3.30;;
68870;SDS011;55906;52.278;6.808;2022-08-02T09:30:56;7.20;;;3.38;;
68870;SDS011;55906;52.278;6.808;2022-08-02T09:33:27;8.27;;;3.50;;
68870;SDS011;55906;52.278;6.808;2022-08-02T09:35:58;6.43;;;3.15;;
68870;SDS011;55906;52.278;6.808;2022-08-02T09:38:26;7.35;;;3.30;;
68870;SDS011;55906;52.278;6.808;2022-08-02T09:40:53;9.33;;;3.60;;
68870;SDS011;55906;52.278;6.808;2022-08-02T09:43:20;7.20;;;3.15;;
68870;SDS011;55906;52.278;6.808;2022-08-02T09:45:50;8.45;;;3.58;;
68870;SDS011;55906;52.278;6.808;2022-08-02T09:48:16;8.65;;;3.22;;
68870;SDS011;55906;52.278;6.808;2022-08-02T09:50:43;7.47;;;3.17;;
68870;SDS011;55906;52.278;6.808;2022-08-02T09:53:11;7.77;;;3.10;;
68870;SDS011;55906;52.278;6.808;2022-08-02T09:55:38;12.85;;;3.53;;
68870;SDS011;55906;52.278;6.808;2022-08-02T09:58:18;27.67;;;5.57;;
68870;SDS011;55906;52.278;6.808;2022-08-02T10:00:56;9.98;;;3.20;;
68870;SDS011;55906;52.278;6.808;2022-08-02T10:03:23;5.95;;;3.40;;
68870;SDS011;55906;52.278;6.808;2022-08-02T10:05:50;4.77;;;2.57;;
68870;SDS011;55906;52.278;6.808;2022-08-02T10:08:19;23.92;;;5.32;;
68870;SDS011;55906;52.278;6.808;2022-08-02T10:10:46;11.25;;;3.83;;
68870;SDS011;55906;52.278;6.808;2022-08-02T10:13:24;7.30;;;3.22;;
68870;SDS011;55906;52.278;6.808;2022-08-02T10:15:54;6.10;;;3.22;;
68870;SDS011;55906;52.278;6.808;2022-08-02T10:18:21;8.87;;;3.33;;
68870;SDS011;55906;52.278;6.808;2022-08-02T10:20:49;6.28;;;3.40;;
68870;SDS011;55906;52.278;6.808;2022-08-02T10:23:16;9.48;;;3.40;;
68870;SDS011;55906;52.278;6.808;2022-08-02T10:25:46;6.15;;;3.30;;
68870;SDS011;55906;52.278;6.808;2022-08-02T10:28:16;5.03;;;3.15;;
68870;SDS011;55906;52.278;6.808;2022-08-02T10:30:45;6.30;;;3.40;;
68870;SDS011;55906;52.278;6.808;2022-08-02T10:33:15;5.32;;;3.28;;
68870;SDS011;55906;52.278;6.808;2022-08-02T10:35:44;5.32;;;3.17;;
68870;SDS011;55906;52.278;6.808;2022-08-02T10:38:15;10.18;;;3.50;;
68870;SDS011;55906;52.278;6.808;2022-08-02T10:40:44;7.93;;;3.13;;
68870;SDS011;55906;52.278;6.808;2022-08-02T10:43:12;7.73;;;3.17;;
68870;SDS011;55906;52.278;6.808;2022-08-02T10:46:23;5.32;;;2.70;;
68870;SDS011;55906;52.278;6.808;2022-08-02T10:49:05;6.03;;;3.20;;
68870;SDS011;55906;52.278;6.808;2022-08-02T10:51:54;7.00;;;3.42;;
68870;SDS011;55906;52.278;6.808;2022-08-02T10:54:31;8.23;;;3.38;;
68870;SDS011;55906;52.278;6.808;2022-08-02T10:56:59;5.23;;;2.80;;
68870;SDS011;55906;52.278;6.808;2022-08-02T10:59:26;5.82;;;3.03;;
68870;SDS011;55906;52.278;6.808;2022-08-02T11:01:54;6.50;;;3.00;;
68870;SDS011;55906;52.278;6.808;2022-08-02T11:04:32;5.00;;;3.22;;
68870;SDS011;55906;52.278;6.808;2022-08-02T11:07:31;8.75;;;2.60;;
68870;SDS011;55906;52.278;6.808;2022-08-02T11:10:26;7.13;;;2.83;;
68870;SDS011;55906;52.278;6.808;2022-08-02T11:12:57;4.40;;;2.33;;
68870;SDS011;55906;52.278;6.808;2022-08-02T11:15:25;4.68;;;3.00;;
68870;SDS011;55906;52.278;6.808;2022-08-02T11:17:52;6.00;;;2.70;;
68870;SDS011;55906;52.278;6.808;2022-08-02T11:20:20;7.47;;;3.30;;
68870;SDS011;55906;52.278;6.808;2022-08-02T11:22:48;5.80;;;3.20;;
68870;SDS011;55906;52.278;6.808;2022-08-02T11:25:31;6.07;;;2.65;;
68870;SDS011;55906;52.278;6.808;2022-08-02T11:27:59;7.32;;;2.85;;
68870;SDS011;55906;52.278;6.808;2022-08-02T11:30:34;7.95;;;3.30;;
68870;SDS011;55906;52.278;6.808;2022-08-02T11:33:01;6.32;;;3.15;;
68870;SDS011;55906;52.278;6.808;2022-08-02T11:35:35;6.47;;;2.80;;
68870;SDS011;55906;52.278;6.808;2022-08-02T11:38:13;5.15;;;2.67;;
68870;SDS011;55906;52.278;6.808;2022-08-02T11:40:42;6.93;;;2.90;;
68870;SDS011;55906;52.278;6.808;2022-08-02T11:43:20;8.10;;;2.90;;
68870;SDS011;55906;52.278;6.808;2022-08-02T11:45:48;4.07;;;2.45;;
68870;SDS011;55906;52.278;6.808;2022-08-02T11:48:29;5.87;;;2.60;;
68870;SDS011;55906;52.278;6.808;2022-08-02T11:51:04;5.13;;;2.47;;
68870;SDS011;55906;52.278;6.808;2022-08-02T11:53:42;4.35;;;2.17;;
68870;SDS011;55906;52.278;6.808;2022-08-02T11:56:12;4.78;;;2.22;;
68870;SDS011;55906;52.278;6.808;2022-08-02T11:58:40;5.40;;;2.30;;
68870;SDS011;55906;52.278;6.808;2022-08-02T12:01:07;4.60;;;2.40;;
68870;SDS011;55906;52.278;6.808;2022-08-02T12:03:34;5.68;;;2.28;;
68870;SDS011;55906;52.278;6.808;2022-08-02T12:06:02;5.85;;;2.65;;
68870;SDS011;55906;52.278;6.808;2022-08-02T12:08:30;7.25;;;2.58;;
68870;SDS011;55906;52.278;6.808;2022-08-02T12:10:59;8.38;;;2.20;;
68870;SDS011;55906;52.278;6.808;2022-08-02T12:13:28;7.07;;;2.10;;
68870;SDS011;55906;52.278;6.808;2022-08-02T12:16:09;5.95;;;2.00;;
68870;SDS011;55906;52.278;6.808;2022-08-02T12:19:05;5.07;;;1.85;;
68870;SDS011;55906;52.278;6.808;2022-08-02T12:21:44;4.35;;;1.80;;
68870;SDS011;55906;52.278;6.808;2022-08-02T12:24:11;5.60;;;2.05;;
68870;SDS011;55906;52.278;6.808;2022-08-02T12:26:41;4.73;;;2.00;;
68870;SDS011;55906;52.278;6.808;2022-08-02T12:29:10;4.28;;;1.77;;
68870;SDS011;55906;52.278;6.808;2022-08-02T12:31:38;4.15;;;1.75;;
68870;SDS011;55906;52.278;6.808;2022-08-02T12:34:10;5.25;;;2.10;;
68870;SDS011;55906;52.278;6.808;2022-08-02T12:36:39;4.50;;;1.85;;
68870;SDS011;55906;52.278;6.808;2022-08-02T12:39:09;3.83;;;2.00;;
68870;SDS011;55906;52.278;6.808;2022-08-02T12:41:37;6.90;;;2.20;;
68870;SDS011;55906;52.278;6.808;2022-08-02T12:44:04;6.75;;;1.95;;
68870;SDS011;55906;52.278;6.808;2022-08-02T12:46:40;5.03;;;2.10;;
68870;SDS011;55906;52.278;6.808;2022-08-02T12:49:14;4.72;;;1.85;;
68870;SDS011;55906;52.278;6.808;2022-08-02T12:51:41;4.17;;;1.60;;
68870;SDS011;55906;52.278;6.808;2022-08-02T12:54:11;4.90;;;1.90;;
68870;SDS011;55906;52.278;6.808;2022-08-02T12:56:40;4.28;;;1.60;;
68870;SDS011;55906;52.278;6.808;2022-08-02T12:59:06;3.92;;;1.58;;
68870;SDS011;55906;52.278;6.808;2022-08-02T13:01:33;4.28;;;1.77;;
68870;SDS011;55906;52.278;6.808;2022-08-02T13:04:02;3.10;;;1.50;;
68870;SDS011;55906;52.278;6.808;2022-08-02T13:06:29;4.22;;;1.40;;
68870;SDS011;55906;52.278;6.808;2022-08-02T13:08:56;3.95;;;1.50;;
68870;SDS011;55906;52.278;6.808;2022-08-02T13:11:23;4.30;;;1.50;;
68870;SDS011;55906;52.278;6.808;2022-08-02T13:13:51;4.35;;;1.40;;
68870;SDS011;55906;52.278;6.808;2022-08-02T13:16:17;3.20;;;1.13;;
68870;SDS011;55906;52.278;6.808;2022-08-02T13:18:44;4.28;;;1.30;;
68870;SDS011;55906;52.278;6.808;2022-08-02T13:21:12;9.32;;;1.25;;
68870;SDS011;55906;52.278;6.808;2022-08-02T13:23:39;3.17;;;1.10;;
68870;SDS011;55906;52.278;6.808;2022-08-02T13:26:05;2.90;;;1.10;;
68870;SDS011;55906;52.278;6.808;2022-08-02T13:28:32;4.23;;;1.13;;
68870;SDS011;55906;52.278;6.808;2022-08-02T13:30:59;4.05;;;1.00;;
68870;SDS011;55906;52.278;6.808;2022-08-02T13:33:26;3.55;;;1.17;;
68870;SDS011;55906;52.278;6.808;2022-08-02T13:35:53;3.30;;;1.08;;
68870;SDS011;55906;52.278;6.808;2022-08-02T13:38:21;3.17;;;1.00;;
68870;SDS011;55906;52.278;6.808;2022-08-02T13:40:48;3.00;;;1.10;;
68870;SDS011;55906;52.278;6.808;2022-08-02T13:43:32;3.47;;;0.95;;
68870;SDS011;55906;52.278;6.808;2022-08-02T13:45:58;3.50;;;1.10;;
68870;SDS011;55906;52.278;6.808;2022-08-02T13:48:25;3.97;;;1.02;;
68870;SDS011;55906;52.278;6.808;2022-08-02T13:50:52;3.25;;;1.10;;
68870;SDS011;55906;52.278;6.808;2022-08-02T13:53:19;4.60;;;1.00;;
68870;SDS011;55906;52.278;6.808;2022-08-02T13:55:47;3.97;;;1.10;;
68870;SDS011;55906;52.278;6.808;2022-08-02T13:58:13;3.90;;;1.20;;
68870;SDS011;55906;52.278;6.808;2022-08-02T14:00:40;4.43;;;1.08;;
68870;SDS011;55906;52.278;6.808;2022-08-02T14:03:07;3.60;;;1.48;;
68870;SDS011;55906;52.278;6.808;2022-08-02T14:05:35;5.90;;;1.20;;
68870;SDS011;55906;52.278;6.808;2022-08-02T14:08:03;3.63;;;1.52;;
68870;SDS011;55906;52.278;6.808;2022-08-02T14:10:29;4.30;;;1.40;;
68870;SDS011;55906;52.278;6.808;2022-08-02T14:12:57;3.58;;;1.40;;
68870;SDS011;55906;52.278;6.808;2022-08-02T14:15:24;4.05;;;1.30;;
68870;SDS011;55906;52.278;6.808;2022-08-02T14:17:51;4.50;;;1.40;;
68870;SDS011;55906;52.278;6.808;2022-08-02T14:20:17;3.80;;;1.42;;
68870;SDS011;55906;52.278;6.808;2022-08-02T14:22:44;3.75;;;1.75;;
68870;SDS011;55906;52.278;6.808;2022-08-02T14:25:10;3.60;;;1.60;;
68870;SDS011;55906;52.278;6.808;2022-08-02T14:27:37;3.90;;;1.52;;
68870;SDS011;55906;52.278;6.808;2022-08-02T14:30:06;4.03;;;1.50;;
68870;SDS011;55906;52.278;6.808;2022-08-02T14:32:33;3.72;;;1.40;;
68870;SDS011;55906;52.278;6.808;2022-08-02T14:35:00;5.00;;;1.60;;
68870;SDS011;55906;52.278;6.808;2022-08-02T14:37:26;4.85;;;1.50;;
68870;SDS011;55906;52.278;6.808;2022-08-02T14:39:53;3.58;;;1.60;;
68870;SDS011;55906;52.278;6.808;2022-08-02T14:42:19;2.90;;;1.33;;
68870;SDS011;55906;52.278;6.808;2022-08-02T14:44:46;5.05;;;1.60;;
68870;SDS011;55906;52.278;6.808;2022-08-02T14:47:14;5.45;;;1.60;;
68870;SDS011;55906;52.278;6.808;2022-08-02T14:49:43;3.50;;;1.33;;
68870;SDS011;55906;52.278;6.808;2022-08-02T14:52:11;2.97;;;1.40;;
68870;SDS011;55906;52.278;6.808;2022-08-02T14:54:38;3.53;;;1.40;;
68870;SDS011;55906;52.278;6.808;2022-08-02T14:57:07;5.32;;;1.50;;
68870;SDS011;55906;52.278;6.808;2022-08-02T14:59:34;3.85;;;1.40;;
68870;SDS011;55906;52.278;6.808;2022-08-02T15:02:01;3.60;;;1.42;;
68870;SDS011;55906;52.278;6.808;2022-08-02T15:04:29;3.58;;;1.30;;